Fernando Pessoa — CSKQ — position and weather

sailwx.info

Track history (hours):
 
Tides and Currents Weather Stations Pressure Air Temp Water Temp Dewpoint Dewpoint Depression Visibility Wind Speed Wind Dir Waves Ship Positions

Fernando Pessoa

Last reported at 2015-Aug-03 22:33 UTC. Time now 2015-Aug-03 23:17 UTC.
Position N 38°39' W 009°05'.

Length 49 m.

MMSI: 263701470.

Date/timePositionNaut miles runAvg speedWind from/ knotsBaromVisibWave heightAir tempDewpointWater temp
2015-Aug-03 22:33N 38°39' W 009°05'1 1.2
2015-Aug-03 21:33N 38°40' W 009°06'0 0.2
2015-Aug-03 20:33N 38°40' W 009°06'1 1.4
2015-Aug-03 19:33N 38°39' W 009°05'0 0.0
2015-Aug-03 18:33N 38°39' W 009°05'1 1.4
2015-Aug-03 17:33N 38°40' W 009°06'3 2.8
2015-Aug-03 16:34N 38°42' W 009°08'4 3.9
2015-Aug-03 15:33N 38°39' W 009°05'0 0.0
2015-Aug-03 12:23N 38°39' W 009°05'1 1.6
2015-Aug-03 11:33N 38°40' W 009°06'0 0.2
2015-Aug-03 10:34N 38°40' W 009°07'2 1.6
2015-Aug-03 09:32N 38°39' W 009°05'0 0.0
2015-Aug-03 08:33N 38°39' W 009°05'0 0.2
2015-Aug-03 07:33N 38°39' W 009°05'1 0.9
2015-Aug-03 06:33N 38°39' W 009°06'1 0.9
2015-Aug-03 05:33N 38°39' W 009°05'  
2015-Jul-31 19:34N 38°42' W 009°08'1 0.5
2015-Jul-31 18:33N 38°42' W 009°08'4 4.1
2015-Jul-31 17:33N 38°39' W 009°05'0 0.0
2015-Jul-31 16:33N 38°39' W 009°05'0 0.1
2015-Jul-31 15:33N 38°39' W 009°05'1 0.8
2015-Jul-31 14:33N 38°39' W 009°06'1 0.8
2015-Jul-31 13:33N 38°39' W 009°05'0 0.0
2015-Jul-31 12:32N 38°39' W 009°05'0 0.0
2015-Jul-31 11:31N 38°39' W 009°05'0 0.0
2015-Jul-31 10:33N 38°39' W 009°05'0 0.1
2015-Jul-31 09:33N 38°39' W 009°05'1 1.5
2015-Jul-31 08:33N 38°40' W 009°06'1 0.7
2015-Jul-31 07:33N 38°40' W 009°07'2 2.1
2015-Jul-31 06:33N 38°39' W 009°05'0 0.0
2015-Jul-31 05:33N 38°39' W 009°05'0 0.0
2015-Jul-31 04:33N 38°39' W 009°05'0 0.0
2015-Jul-31 03:33N 38°39' W 009°05'0 0.0
2015-Jul-31 02:32N 38°39' W 009°05'0 0.0
2015-Jul-31 01:31N 38°39' W 009°05'0 0.0
2015-Jul-31 00:26N 38°39' W 009°05'0 0.0
2015-Jul-30 23:30N 38°39' W 009°05'4 4.1
2015-Jul-30 22:34N 38°42' W 009°08'1 1.0
2015-Jul-30 21:33N 38°41' W 009°08'0 0.3
2015-Jul-30 20:33N 38°41' W 009°08'3 3.1
2015-Jul-30 19:33N 38°39' W 009°05'0 0.3
2015-Jul-30 18:33N 38°39' W 009°05'0 0.3
2015-Jul-30 17:33N 38°39' W 009°05'1 1.4
2015-Jul-30 16:33N 38°40' W 009°06'1 1.2
2015-Jul-30 15:31N 38°39' W 009°05'0 0.0
2015-Jul-30 14:33N 38°39' W 009°05'0 0.0
2015-Jul-30 13:32N 38°39' W 009°05'0 0.0
2015-Jul-30 12:29N 38°39' W 009°05'0 0.0
2015-Jul-30 11:31N 38°39' W 009°05'0 0.0
2015-Jul-30 10:33N 38°39' W 009°05'1 1.2
2015-Jul-30 09:33N 38°40' W 009°06'0 0.1
2015-Jul-30 08:33N 38°40' W 009°06'3 2.6
2015-Jul-30 07:34N 38°42' W 009°08'0 0.4
2015-Jul-30 06:33N 38°42' W 009°08'4 0.4
2015-Jul-29 20:33N 38°39' W 009°05'0 0.1
2015-Jul-29 19:30N 38°39' W 009°05'4 3.8
2015-Jul-29 18:34N 38°42' W 009°08'2 1.8
2015-Jul-29 17:33N 38°40' W 009°07'2 2.0
2015-Jul-29 16:33N 38°39' W 009°05'0 0.1
2015-Jul-29 15:34N 38°39' W 009°05'0 0.2
2015-Jul-29 14:34N 38°39' W 009°05'0 0.0
2015-Jul-29 13:33N 38°39' W 009°05'0 0.0
2015-Jul-29 12:33N 38°39' W 009°05'0 0.0
2015-Jul-29 11:29N 38°39' W 009°05'0 0.0
2015-Jul-29 10:33N 38°39' W 009°05'1 0.8
2015-Jul-29 09:33N 38°39' W 009°06'0 0.3
2015-Jul-29 08:33N 38°40' W 009°06'3 2.8
2015-Jul-29 07:33N 38°42' W 009°08'0 0.4
2015-Jul-29 06:33N 38°42' W 009°08'4 4.0
2015-Jul-29 05:33N 38°39' W 009°05'0 0.0
2015-Jul-29 04:33N 38°39' W 009°05'0 0.0
2015-Jul-29 03:33N 38°39' W 009°05'0 0.0
2015-Jul-29 02:33N 38°39' W 009°05'0 0.0
2015-Jul-29 01:33N 38°39' W 009°05'0 0.0
2015-Jul-29 00:33N 38°39' W 009°05'0 0.0
2015-Jul-28 23:32N 38°39' W 009°05'0 0.0
2015-Jul-28 22:33N 38°39' W 009°05'0 0.0
2015-Jul-28 21:31N 38°39' W 009°05'0 0.0
2015-Jul-28 20:32N 38°39' W 009°05'4 4.2
2015-Jul-28 19:33N 38°42' W 009°08'0 0.1
2015-Jul-28 18:33N 38°42' W 009°08'4 4.2
2015-Jul-28 17:33N 38°39' W 009°05'0 0.0
2015-Jul-28 16:33N 38°39' W 009°05'4 3.6
2015-Jul-28 15:33N 38°42' W 009°08'1 1.1
2015-Jul-28 14:34N 38°41' W 009°08'0 0.2
2015-Jul-28 13:33N 38°41' W 009°08'0 0.0
2015-Jul-28 12:33N 38°41' W 009°08'0 0.4
2015-Jul-28 11:33N 38°41' W 009°08'0 0.4
2015-Jul-28 10:33N 38°41' W 009°08'3 2.8
2015-Jul-28 09:33N 38°39' W 009°05'4 4.1
2015-Jul-28 08:33N 38°42' W 009°08'0 0.0
2015-Jul-28 07:34N 38°42' W 009°08'3 2.6
2015-Jul-28 06:33N 38°40' W 009°07'2 1.7
2015-Jul-28 05:33N 38°39' W 009°05'0 0.0
2015-Jul-27 19:06N 38°39' W 009°05'4 7.3
2015-Jul-27 18:33N 38°42' W 009°08'0 0.3
2015-Jul-27 17:33N 38°42' W 009°08'3 2.7
2015-Jul-27 16:33N 38°40' W 009°07'1 1.4
2015-Jul-27 15:33N 38°39' W 009°05'1 0.6
2015-Jul-27 14:34N 38°39' W 009°06'1 0.9
2015-Jul-27 13:33N 38°39' W 009°05'0 0.0
2015-Jul-27 12:33N 38°39' W 009°05'0 0.0
2015-Jul-27 11:33N 38°39' W 009°05'0 0.0
2015-Jul-27 10:33N 38°39' W 009°05'1 1.1
2015-Jul-27 09:33N 38°40' W 009°06'0 0.2
2015-Jul-27 08:33N 38°40' W 009°06'1 0.5
2015-Jul-27 07:33N 38°40' W 009°07'2 1.9
2015-Jul-27 06:32N 38°39' W 009°05'0 0.0
2015-Jul-27 05:33N 38°39' W 009°05'0 0.0
2015-Jul-27 04:33N 38°39' W 009°05'3 0.4
2015-Jul-26 20:33N 38°41' W 009°08'3 2.7
2015-Jul-26 19:32N 38°39' W 009°05'2 2.2
2015-Jul-26 18:33N 38°40' W 009°07'1 0.6
2015-Jul-26 17:33N 38°40' W 009°06'0 0.1
2015-Jul-26 16:33N 38°40' W 009°07'0 0.1
2015-Jul-26 15:33N 38°40' W 009°06'0 0.1
2015-Jul-26 14:33N 38°40' W 009°07'0 0.4
2015-Jul-26 13:33N 38°40' W 009°06'0 0.1
2015-Jul-26 12:33N 38°40' W 009°06'1 1.1
2015-Jul-26 11:33N 38°39' W 009°05'0 0.0
2015-Jul-26 10:32N 38°39' W 009°05'0 0.0
2015-Jul-26 09:33N 38°39' W 009°05'0 0.0
2015-Jul-26 08:33N 38°39' W 009°05'0 0.0
2015-Jul-26 07:33N 38°39' W 009°05'0 0.0
2015-Jul-26 06:33N 38°39' W 009°05'0 0.4
2015-Jul-26 05:33N 38°39' W 009°05'0 0.4
2015-Jul-26 04:33N 38°39' W 009°05'  
Track history (hours):
 
Tides and Currents Weather Stations Pressure Air Temp Water Temp Dewpoint Dewpoint Depression Visibility Wind Speed Wind Dir Waves Ship Positions

Fernando Pessoa

Last reported at 2015-Aug-03 22:33 UTC. Time now 2015-Aug-03 23:17 UTC.
Position N 38°39' W 009°05'.

Length 49 m.

MMSI: 263701470.

Date/timePositionNaut miles runAvg speedWind from/ knotsBaromVisibWave heightAir tempDewpointWater temp
2015-Aug-03 22:33N 38°39' W 009°05'1 1.2
2015-Aug-03 21:33N 38°40' W 009°06'0 0.2
2015-Aug-03 20:33N 38°40' W 009°06'1 1.4
2015-Aug-03 19:33N 38°39' W 009°05'0 0.0
2015-Aug-03 18:33N 38°39' W 009°05'1 1.4
2015-Aug-03 17:33N 38°40' W 009°06'3 2.8
2015-Aug-03 16:34N 38°42' W 009°08'4 3.9
2015-Aug-03 15:33N 38°39' W 009°05'0 0.0
2015-Aug-03 12:23N 38°39' W 009°05'1 1.6
2015-Aug-03 11:33N 38°40' W 009°06'0 0.2
2015-Aug-03 10:34N 38°40' W 009°07'2 1.6
2015-Aug-03 09:32N 38°39' W 009°05'0 0.0
2015-Aug-03 08:33N 38°39' W 009°05'0 0.2
2015-Aug-03 07:33N 38°39' W 009°05'1 0.9
2015-Aug-03 06:33N 38°39' W 009°06'1 0.9
2015-Aug-03 05:33N 38°39' W 009°05'  
2015-Jul-31 19:34N 38°42' W 009°08'1 0.5
2015-Jul-31 18:33N 38°42' W 009°08'4 4.1
2015-Jul-31 17:33N 38°39' W 009°05'0 0.0
2015-Jul-31 16:33N 38°39' W 009°05'0 0.1
2015-Jul-31 15:33N 38°39' W 009°05'1 0.8
2015-Jul-31 14:33N 38°39' W 009°06'1 0.8
2015-Jul-31 13:33N 38°39' W 009°05'0 0.0
2015-Jul-31 12:32N 38°39' W 009°05'0 0.0
2015-Jul-31 11:31N 38°39' W 009°05'0 0.0
2015-Jul-31 10:33N 38°39' W 009°05'0 0.1
2015-Jul-31 09:33N 38°39' W 009°05'1 1.5
2015-Jul-31 08:33N 38°40' W 009°06'1 0.7
2015-Jul-31 07:33N 38°40' W 009°07'2 2.1
2015-Jul-31 06:33N 38°39' W 009°05'0 0.0
2015-Jul-31 05:33N 38°39' W 009°05'0 0.0
2015-Jul-31 04:33N 38°39' W 009°05'0 0.0
2015-Jul-31 03:33N 38°39' W 009°05'0 0.0
2015-Jul-31 02:32N 38°39' W 009°05'0 0.0
2015-Jul-31 01:31N 38°39' W 009°05'0 0.0
2015-Jul-31 00:26N 38°39' W 009°05'0 0.0
2015-Jul-30 23:30N 38°39' W 009°05'4 4.1
2015-Jul-30 22:34N 38°42' W 009°08'1 1.0
2015-Jul-30 21:33N 38°41' W 009°08'0 0.3
2015-Jul-30 20:33N 38°41' W 009°08'3 3.1
2015-Jul-30 19:33N 38°39' W 009°05'0 0.3
2015-Jul-30 18:33N 38°39' W 009°05'0 0.3
2015-Jul-30 17:33N 38°39' W 009°05'1 1.4
2015-Jul-30 16:33N 38°40' W 009°06'1 1.2
2015-Jul-30 15:31N 38°39' W 009°05'0 0.0
2015-Jul-30 14:33N 38°39' W 009°05'0 0.0
2015-Jul-30 13:32N 38°39' W 009°05'0 0.0
2015-Jul-30 12:29N 38°39' W 009°05'0 0.0
2015-Jul-30 11:31N 38°39' W 009°05'0 0.0
2015-Jul-30 10:33N 38°39' W 009°05'1 1.2
2015-Jul-30 09:33N 38°40' W 009°06'0 0.1
2015-Jul-30 08:33N 38°40' W 009°06'3 2.6
2015-Jul-30 07:34N 38°42' W 009°08'0 0.4
2015-Jul-30 06:33N 38°42' W 009°08'4 0.4
2015-Jul-29 20:33N 38°39' W 009°05'0 0.1
2015-Jul-29 19:30N 38°39' W 009°05'4 3.8
2015-Jul-29 18:34N 38°42' W 009°08'2 1.8
2015-Jul-29 17:33N 38°40' W 009°07'2 2.0
2015-Jul-29 16:33N 38°39' W 009°05'0 0.1
2015-Jul-29 15:34N 38°39' W 009°05'0 0.2
2015-Jul-29 14:34N 38°39' W 009°05'0 0.0
2015-Jul-29 13:33N 38°39' W 009°05'0 0.0
2015-Jul-29 12:33N 38°39' W 009°05'0 0.0
2015-Jul-29 11:29N 38°39' W 009°05'0 0.0
2015-Jul-29 10:33N 38°39' W 009°05'1 0.8
2015-Jul-29 09:33N 38°39' W 009°06'0 0.3
2015-Jul-29 08:33N 38°40' W 009°06'3 2.8
2015-Jul-29 07:33N 38°42' W 009°08'0 0.4
2015-Jul-29 06:33N 38°42' W 009°08'4 4.0
2015-Jul-29 05:33N 38°39' W 009°05'0 0.0
2015-Jul-29 04:33N 38°39' W 009°05'0 0.0
2015-Jul-29 03:33N 38°39' W 009°05'0 0.0
2015-Jul-29 02:33N 38°39' W 009°05'0 0.0
2015-Jul-29 01:33N 38°39' W 009°05'0 0.0
2015-Jul-29 00:33N 38°39' W 009°05'0 0.0
2015-Jul-28 23:32N 38°39' W 009°05'0 0.0
2015-Jul-28 22:33N 38°39' W 009°05'0 0.0
2015-Jul-28 21:31N 38°39' W 009°05'0 0.0
2015-Jul-28 20:32N 38°39' W 009°05'4 4.2
2015-Jul-28 19:33N 38°42' W 009°08'0 0.1
2015-Jul-28 18:33N 38°42' W 009°08'4 4.2
2015-Jul-28 17:33N 38°39' W 009°05'0 0.0
2015-Jul-28 16:33N 38°39' W 009°05'4 3.6
2015-Jul-28 15:33N 38°42' W 009°08'1 1.1
2015-Jul-28 14:34N 38°41' W 009°08'0 0.2
2015-Jul-28 13:33N 38°41' W 009°08'0 0.0
2015-Jul-28 12:33N 38°41' W 009°08'0 0.4
2015-Jul-28 11:33N 38°41' W 009°08'0 0.4
2015-Jul-28 10:33N 38°41' W 009°08'3 2.8
2015-Jul-28 09:33N 38°39' W 009°05'4 4.1
2015-Jul-28 08:33N 38°42' W 009°08'0 0.0
2015-Jul-28 07:34N 38°42' W 009°08'3 2.6
2015-Jul-28 06:33N 38°40' W 009°07'2 1.7
2015-Jul-28 05:33N 38°39' W 009°05'0 0.0
2015-Jul-27 19:06N 38°39' W 009°05'4 7.3
2015-Jul-27 18:33N 38°42' W 009°08'0 0.3
2015-Jul-27 17:33N 38°42' W 009°08'3 2.7
2015-Jul-27 16:33N 38°40' W 009°07'1 1.4
2015-Jul-27 15:33N 38°39' W 009°05'1 0.6
2015-Jul-27 14:34N 38°39' W 009°06'1 0.9
2015-Jul-27 13:33N 38°39' W 009°05'0 0.0
2015-Jul-27 12:33N 38°39' W 009°05'0 0.0
2015-Jul-27 11:33N 38°39' W 009°05'0 0.0
2015-Jul-27 10:33N 38°39' W 009°05'1 1.1
2015-Jul-27 09:33N 38°40' W 009°06'0 0.2
2015-Jul-27 08:33N 38°40' W 009°06'1 0.5
2015-Jul-27 07:33N 38°40' W 009°07'2 1.9
2015-Jul-27 06:32N 38°39' W 009°05'0 0.0
2015-Jul-27 05:33N 38°39' W 009°05'0 0.0
2015-Jul-27 04:33N 38°39' W 009°05'3 0.4
2015-Jul-26 20:33N 38°41' W 009°08'3 2.7
2015-Jul-26 19:32N 38°39' W 009°05'2 2.2
2015-Jul-26 18:33N 38°40' W 009°07'1 0.6
2015-Jul-26 17:33N 38°40' W 009°06'0 0.1
2015-Jul-26 16:33N 38°40' W 009°07'0 0.1
2015-Jul-26 15:33N 38°40' W 009°06'0 0.1
2015-Jul-26 14:33N 38°40' W 009°07'0 0.4
2015-Jul-26 13:33N 38°40' W 009°06'0 0.1
2015-Jul-26 12:33N 38°40' W 009°06'1 1.1
2015-Jul-26 11:33N 38°39' W 009°05'0 0.0
2015-Jul-26 10:32N 38°39' W 009°05'0 0.0
2015-Jul-26 09:33N 38°39' W 009°05'0 0.0
2015-Jul-26 08:33N 38°39' W 009°05'0 0.0
2015-Jul-26 07:33N 38°39' W 009°05'0 0.0
2015-Jul-26 06:33N 38°39' W 009°05'0 0.4
2015-Jul-26 05:33N 38°39' W 009°05'0 0.4
2015-Jul-26 04:33N 38°39' W 009°05'  

Dump ship's entire track history